sensor_id;sensor_type;location;lat;lon;timestamp;temperature;humidity
68943;DHT22;60852;52.190;4.422;2023-12-14T00:01:15;6.68;83.98
68943;DHT22;60852;52.190;4.422;2023-12-14T00:03:41;6.67;84.00
68943;DHT22;60852;52.190;4.422;2023-12-14T00:06:07;6.73;84.17
68943;DHT22;60852;52.190;4.422;2023-12-14T00:08:33;6.74;84.20
68943;DHT22;60852;52.190;4.422;2023-12-14T00:11:06;6.77;83.85
68943;DHT22;60852;52.190;4.422;2023-12-14T00:13:32;6.80;83.97
68943;DHT22;60852;52.190;4.422;2023-12-14T00:15:58;6.80;83.76
68943;DHT22;60852;52.190;4.422;2023-12-14T00:18:23;6.87;83.92
68943;DHT22;60852;52.190;4.422;2023-12-14T00:20:49;6.89;83.93
68943;DHT22;60852;52.190;4.422;2023-12-14T00:23:14;6.88;83.69
68943;DHT22;60852;52.190;4.422;2023-12-14T00:25:40;6.87;83.92
68943;DHT22;60852;52.190;4.422;2023-12-14T00:28:06;6.88;83.97
68943;DHT22;60852;52.190;4.422;2023-12-14T00:30:32;6.96;83.74
68943;DHT22;60852;52.190;4.422;2023-12-14T00:32:57;7.05;84.04
68943;DHT22;60852;52.190;4.422;2023-12-14T00:35:22;7.01;83.18
68943;DHT22;60852;52.190;4.422;2023-12-14T00:37:48;6.99;83.49
68943;DHT22;60852;52.190;4.422;2023-12-14T00:40:13;6.95;83.74
68943;DHT22;60852;52.190;4.422;2023-12-14T00:42:39;6.98;83.83
68943;DHT22;60852;52.190;4.422;2023-12-14T00:45:05;6.98;83.89
68943;DHT22;60852;52.190;4.422;2023-12-14T00:47:31;7.04;83.78
68943;DHT22;60852;52.190;4.422;2023-12-14T00:49:56;7.04;83.76
68943;DHT22;60852;52.190;4.422;2023-12-14T00:52:22;7.12;83.60
68943;DHT22;60852;52.190;4.422;2023-12-14T00:54:47;7.12;83.56
68943;DHT22;60852;52.190;4.422;2023-12-14T00:57:13;7.01;83.54
68943;DHT22;60852;52.190;4.422;2023-12-14T00:59:38;7.01;83.59
68943;DHT22;60852;52.190;4.422;2023-12-14T01:02:05;7.01;83.53
68943;DHT22;60852;52.190;4.422;2023-12-14T01:04:31;7.01;83.52
68943;DHT22;60852;52.190;4.422;2023-12-14T01:06:56;7.05;83.46
68943;DHT22;60852;52.190;4.422;2023-12-14T01:09:22;7.05;83.45
68943;DHT22;60852;52.190;4.422;2023-12-14T01:11:47;7.11;83.25
68943;DHT22;60852;52.190;4.422;2023-12-14T01:14:12;7.01;83.25
68943;DHT22;60852;52.190;4.422;2023-12-14T01:16:38;6.98;83.52
68943;DHT22;60852;52.190;4.422;2023-12-14T01:19:03;7.01;83.50
68943;DHT22;60852;52.190;4.422;2023-12-14T01:21:31;6.99;83.43
68943;DHT22;60852;52.190;4.422;2023-12-14T01:23:57;6.95;83.43
68943;DHT22;60852;52.190;4.422;2023-12-14T01:26:22;6.98;83.34
68943;DHT22;60852;52.190;4.422;2023-12-14T01:28:47;6.94;83.38
68943;DHT22;60852;52.190;4.422;2023-12-14T01:31:13;6.89;83.23
68943;DHT22;60852;52.190;4.422;2023-12-14T01:33:38;6.89;83.50
68943;DHT22;60852;52.190;4.422;2023-12-14T01:36:04;6.98;83.39
68943;DHT22;60852;52.190;4.422;2023-12-14T01:38:30;7.05;83.12
68943;DHT22;60852;52.190;4.422;2023-12-14T01:40:55;7.01;83.07
68943;DHT22;60852;52.190;4.422;2023-12-14T01:43:21;6.92;82.97
68943;DHT22;60852;52.190;4.422;2023-12-14T01:45:47;6.94;83.18
68943;DHT22;60852;52.190;4.422;2023-12-14T01:48:12;7.02;83.08
68943;DHT22;60852;52.190;4.422;2023-12-14T01:50:38;7.01;82.83
68943;DHT22;60852;52.190;4.422;2023-12-14T01:53:04;7.05;82.68
68943;DHT22;60852;52.190;4.422;2023-12-14T01:55:29;7.11;82.53
68943;DHT22;60852;52.190;4.422;2023-12-14T01:57:55;7.06;82.32
68943;DHT22;60852;52.190;4.422;2023-12-14T02:00:53;7.12;82.57
68943;DHT22;60852;52.190;4.422;2023-12-14T02:03:22;7.20;82.38
68943;DHT22;60852;52.190;4.422;2023-12-14T02:05:47;7.23;82.15
68943;DHT22;60852;52.190;4.422;2023-12-14T02:08:13;7.12;82.19
68943;DHT22;60852;52.190;4.422;2023-12-14T02:10:38;7.14;82.43
68943;DHT22;60852;52.190;4.422;2023-12-14T02:13:04;7.16;82.58
68943;DHT22;60852;52.190;4.422;2023-12-14T02:15:29;7.23;82.46
68943;DHT22;60852;52.190;4.422;2023-12-14T02:17:55;7.22;82.27
68943;DHT22;60852;52.190;4.422;2023-12-14T02:20:21;7.26;82.28
68943;DHT22;60852;52.190;4.422;2023-12-14T02:22:51;7.23;81.88
68943;DHT22;60852;52.190;4.422;2023-12-14T02:25:17;7.14;81.94
68943;DHT22;60852;52.190;4.422;2023-12-14T02:27:42;7.14;82.16
68943;DHT22;60852;52.190;4.422;2023-12-14T02:30:09;7.11;82.26
68943;DHT22;60852;52.190;4.422;2023-12-14T02:32:34;7.12;82.58
68943;DHT22;60852;52.190;4.422;2023-12-14T02:35:00;7.15;82.42
68943;DHT22;60852;52.190;4.422;2023-12-14T02:37:25;7.12;82.31
68943;DHT22;60852;52.190;4.422;2023-12-14T02:39:50;7.11;82.56
68943;DHT22;60852;52.190;4.422;2023-12-14T02:42:16;7.08;82.06
68943;DHT22;60852;52.190;4.422;2023-12-14T02:44:42;6.99;82.13
68943;DHT22;60852;52.190;4.422;2023-12-14T02:47:07;6.96;82.42
68943;DHT22;60852;52.190;4.422;2023-12-14T02:49:32;6.96;82.59
68943;DHT22;60852;52.190;4.422;2023-12-14T02:51:58;6.95;82.20
68943;DHT22;60852;52.190;4.422;2023-12-14T02:54:24;6.94;82.29
68943;DHT22;60852;52.190;4.422;2023-12-14T02:56:49;6.99;82.19
68943;DHT22;60852;52.190;4.422;2023-12-14T02:59:15;7.02;81.77
68943;DHT22;60852;52.190;4.422;2023-12-14T03:01:40;6.99;81.32
68943;DHT22;60852;52.190;4.422;2023-12-14T03:04:06;6.96;81.19
68943;DHT22;60852;52.190;4.422;2023-12-14T03:06:33;6.98;81.30
68943;DHT22;60852;52.190;4.422;2023-12-14T03:08:58;6.98;81.02
68943;DHT22;60852;52.190;4.422;2023-12-14T03:11:24;7.01;80.97
68943;DHT22;60852;52.190;4.422;2023-12-14T03:13:49;7.02;80.79
68943;DHT22;60852;52.190;4.422;2023-12-14T03:16:15;7.02;80.57
68943;DHT22;60852;52.190;4.422;2023-12-14T03:18:42;6.98;80.84
68943;DHT22;60852;52.190;4.422;2023-12-14T03:21:09;6.96;80.53
68943;DHT22;60852;52.190;4.422;2023-12-14T03:23:34;6.98;80.74
68943;DHT22;60852;52.190;4.422;2023-12-14T03:26:00;6.89;80.71
68943;DHT22;60852;52.190;4.422;2023-12-14T03:28:27;6.88;80.82
68943;DHT22;60852;52.190;4.422;2023-12-14T03:30:52;6.92;80.86
68943;DHT22;60852;52.190;4.422;2023-12-14T03:33:20;7.01;80.84
68943;DHT22;60852;52.190;4.422;2023-12-14T03:35:47;7.05;80.45
68943;DHT22;60852;52.190;4.422;2023-12-14T03:38:16;7.06;80.47
68943;DHT22;60852;52.190;4.422;2023-12-14T03:40:41;7.06;80.09
68943;DHT22;60852;52.190;4.422;2023-12-14T03:43:06;7.01;80.03
68943;DHT22;60852;52.190;4.422;2023-12-14T03:45:32;7.06;79.84
68943;DHT22;60852;52.190;4.422;2023-12-14T03:47:58;7.05;79.92
68943;DHT22;60852;52.190;4.422;2023-12-14T03:50:23;6.98;79.58
68943;DHT22;60852;52.190;4.422;2023-12-14T03:52:49;7.02;79.81
68943;DHT22;60852;52.190;4.422;2023-12-14T03:55:14;7.08;79.66
68943;DHT22;60852;52.190;4.422;2023-12-14T03:57:42;7.11;79.76
68943;DHT22;60852;52.190;4.422;2023-12-14T04:00:11;7.11;79.37
68943;DHT22;60852;52.190;4.422;2023-12-14T04:02:38;7.08;79.08
68943;DHT22;60852;52.190;4.422;2023-12-14T04:05:05;7.08;79.33
68943;DHT22;60852;52.190;4.422;2023-12-14T04:07:31;7.06;79.47
68943;DHT22;60852;52.190;4.422;2023-12-14T04:09:56;7.11;79.46
68943;DHT22;60852;52.190;4.422;2023-12-14T04:12:22;7.14;79.10
68943;DHT22;60852;52.190;4.422;2023-12-14T04:14:47;7.12;79.15
68943;DHT22;60852;52.190;4.422;2023-12-14T04:17:13;7.08;78.99
68943;DHT22;60852;52.190;4.422;2023-12-14T04:19:39;7.04;78.90
68943;DHT22;60852;52.190;4.422;2023-12-14T04:22:05;6.99;79.31
68943;DHT22;60852;52.190;4.422;2023-12-14T04:24:30;7.01;79.15
68943;DHT22;60852;52.190;4.422;2023-12-14T04:26:56;7.02;79.04
68943;DHT22;60852;52.190;4.422;2023-12-14T04:29:21;7.14;78.81
68943;DHT22;60852;52.190;4.422;2023-12-14T04:31:47;7.15;78.75
68943;DHT22;60852;52.190;4.422;2023-12-14T04:34:12;7.18;78.53
68943;DHT22;60852;52.190;4.422;2023-12-14T04:36:42;7.23;78.47
68943;DHT22;60852;52.190;4.422;2023-12-14T04:39:07;7.30;77.84
68943;DHT22;60852;52.190;4.422;2023-12-14T04:41:33;7.26;77.50
68943;DHT22;60852;52.190;4.422;2023-12-14T04:43:58;7.27;77.48
68943;DHT22;60852;52.190;4.422;2023-12-14T04:46:24;7.35;77.59
68943;DHT22;60852;52.190;4.422;2023-12-14T04:48:49;7.26;76.77
68943;DHT22;60852;52.190;4.422;2023-12-14T04:51:15;7.23;77.28
68943;DHT22;60852;52.190;4.422;2023-12-14T04:53:40;7.29;77.30
68943;DHT22;60852;52.190;4.422;2023-12-14T04:56:10;7.30;77.05
68943;DHT22;60852;52.190;4.422;2023-12-14T04:58:35;7.23;77.26
68943;DHT22;60852;52.190;4.422;2023-12-14T05:01:01;7.20;77.43
68943;DHT22;60852;52.190;4.422;2023-12-14T05:03:26;7.16;77.38
68943;DHT22;60852;52.190;4.422;2023-12-14T05:05:52;6.98;77.86
68943;DHT22;60852;52.190;4.422;2023-12-14T05:08:17;7.01;78.17
68943;DHT22;60852;52.190;4.422;2023-12-14T05:10:43;6.98;78.25
68943;DHT22;60852;52.190;4.422;2023-12-14T05:13:08;6.99;78.48
68943;DHT22;60852;52.190;4.422;2023-12-14T05:15:34;6.95;78.31
68943;DHT22;60852;52.190;4.422;2023-12-14T05:17:59;6.95;78.46
68943;DHT22;60852;52.190;4.422;2023-12-14T05:20:24;6.91;78.76
68943;DHT22;60852;52.190;4.422;2023-12-14T05:22:50;6.94;78.72
68943;DHT22;60852;52.190;4.422;2023-12-14T05:25:15;6.92;78.64
68943;DHT22;60852;52.190;4.422;2023-12-14T05:27:41;6.89;78.98
68943;DHT22;60852;52.190;4.422;2023-12-14T05:30:07;6.81;78.99
68943;DHT22;60852;52.190;4.422;2023-12-14T05:32:32;6.81;78.98
68943;DHT22;60852;52.190;4.422;2023-12-14T05:34:58;6.78;79.19
68943;DHT22;60852;52.190;4.422;2023-12-14T05:37:24;6.74;79.39
68943;DHT22;60852;52.190;4.422;2023-12-14T05:39:50;6.74;79.31
68943;DHT22;60852;52.190;4.422;2023-12-14T05:42:16;6.67;79.35
68943;DHT22;60852;52.190;4.422;2023-12-14T05:44:43;6.63;79.54
68943;DHT22;60852;52.190;4.422;2023-12-14T05:47:13;6.57;79.69
68943;DHT22;60852;52.190;4.422;2023-12-14T05:49:42;6.55;79.81
68943;DHT22;60852;52.190;4.422;2023-12-14T05:52:08;6.55;79.67
68943;DHT22;60852;52.190;4.422;2023-12-14T05:54:36;6.57;79.60
68943;DHT22;60852;52.190;4.422;2023-12-14T05:57:01;6.53;79.70
68943;DHT22;60852;52.190;4.422;2023-12-14T05:59:27;6.50;79.53
68943;DHT22;60852;52.190;4.422;2023-12-14T06:01:57;6.53;79.70
68943;DHT22;60852;52.190;4.422;2023-12-14T06:04:22;6.57;79.49
68943;DHT22;60852;52.190;4.422;2023-12-14T06:06:47;6.57;79.35
68943;DHT22;60852;52.190;4.422;2023-12-14T06:09:13;6.54;79.26
68943;DHT22;60852;52.190;4.422;2023-12-14T06:11:38;6.54;79.28
68943;DHT22;60852;52.190;4.422;2023-12-14T06:14:04;6.51;79.51
68943;DHT22;60852;52.190;4.422;2023-12-14T06:16:29;6.60;79.31
68943;DHT22;60852;52.190;4.422;2023-12-14T06:18:55;6.63;78.92
68943;DHT22;60852;52.190;4.422;2023-12-14T06:21:20;6.61;79.05
68943;DHT22;60852;52.190;4.422;2023-12-14T06:23:46;6.73;79.19
68943;DHT22;60852;52.190;4.422;2023-12-14T06:26:11;6.83;79.01
68943;DHT22;60852;52.190;4.422;2023-12-14T06:28:37;6.83;78.75
68943;DHT22;60852;52.190;4.422;2023-12-14T06:31:02;6.95;78.75
68943;DHT22;60852;52.190;4.422;2023-12-14T06:33:28;6.96;78.13
68943;DHT22;60852;52.190;4.422;2023-12-14T06:35:53;6.94;78.10
68943;DHT22;60852;52.190;4.422;2023-12-14T06:38:18;6.92;78.10
68943;DHT22;60852;52.190;4.422;2023-12-14T06:40:44;6.88;78.00
68943;DHT22;60852;52.190;4.422;2023-12-14T06:43:09;6.85;78.01
68943;DHT22;60852;52.190;4.422;2023-12-14T06:45:38;6.84;78.05
68943;DHT22;60852;52.190;4.422;2023-12-14T06:48:04;6.80;78.24
68943;DHT22;60852;52.190;4.422;2023-12-14T06:50:29;6.75;78.30
68943;DHT22;60852;52.190;4.422;2023-12-14T06:52:55;6.77;78.37
68943;DHT22;60852;52.190;4.422;2023-12-14T06:55:20;6.78;78.39
68943;DHT22;60852;52.190;4.422;2023-12-14T06:57:45;6.77;78.23
68943;DHT22;60852;52.190;4.422;2023-12-14T07:00:13;6.71;78.30
68943;DHT22;60852;52.190;4.422;2023-12-14T07:02:39;6.70;78.42
68943;DHT22;60852;52.190;4.422;2023-12-14T07:05:04;6.71;78.57
68943;DHT22;60852;52.190;4.422;2023-12-14T07:07:30;6.74;78.48
68943;DHT22;60852;52.190;4.422;2023-12-14T07:09:55;6.77;78.63
68943;DHT22;60852;52.190;4.422;2023-12-14T07:12:20;6.80;78.47
68943;DHT22;60852;52.190;4.422;2023-12-14T07:14:46;6.84;78.48
68943;DHT22;60852;52.190;4.422;2023-12-14T07:17:11;6.85;78.43
68943;DHT22;60852;52.190;4.422;2023-12-14T07:19:37;6.87;78.35
68943;DHT22;60852;52.190;4.422;2023-12-14T07:22:02;6.83;78.37
68943;DHT22;60852;52.190;4.422;2023-12-14T07:24:28;6.85;78.62
68943;DHT22;60852;52.190;4.422;2023-12-14T07:26:53;6.88;78.66
68943;DHT22;60852;52.190;4.422;2023-12-14T07:29:20;6.84;78.60
68943;DHT22;60852;52.190;4.422;2023-12-14T07:31:45;6.88;78.73
68943;DHT22;60852;52.190;4.422;2023-12-14T07:34:10;6.87;78.62
68943;DHT22;60852;52.190;4.422;2023-12-14T07:36:36;6.88;78.50
68943;DHT22;60852;52.190;4.422;2023-12-14T07:39:02;6.85;78.58
68943;DHT22;60852;52.190;4.422;2023-12-14T07:41:28;6.88;78.50
68943;DHT22;60852;52.190;4.422;2023-12-14T07:43:55;6.78;78.35
68943;DHT22;60852;52.190;4.422;2023-12-14T07:46:21;6.71;78.35
68943;DHT22;60852;52.190;4.422;2023-12-14T07:48:47;6.65;78.82
68943;DHT22;60852;52.190;4.422;2023-12-14T07:51:12;6.64;78.92
68943;DHT22;60852;52.190;4.422;2023-12-14T07:53:38;6.67;78.93
68943;DHT22;60852;52.190;4.422;2023-12-14T07:56:04;6.64;79.03
68943;DHT22;60852;52.190;4.422;2023-12-14T07:58:30;6.63;79.38
68943;DHT22;60852;52.190;4.422;2023-12-14T08:00:55;6.61;79.29
68943;DHT22;60852;52.190;4.422;2023-12-14T08:03:21;6.64;79.26
68943;DHT22;60852;52.190;4.422;2023-12-14T08:05:47;6.65;79.11
68943;DHT22;60852;52.190;4.422;2023-12-14T08:08:12;6.67;79.34
68943;DHT22;60852;52.190;4.422;2023-12-14T08:10:38;6.70;79.14
68943;DHT22;60852;52.190;4.422;2023-12-14T08:13:03;6.70;79.41
68943;DHT22;60852;52.190;4.422;2023-12-14T08:15:28;6.73;79.55
68943;DHT22;60852;52.190;4.422;2023-12-14T08:17:55;6.73;79.36
68943;DHT22;60852;52.190;4.422;2023-12-14T08:20:20;6.74;79.30
68943;DHT22;60852;52.190;4.422;2023-12-14T08:22:46;6.78;79.19
68943;DHT22;60852;52.190;4.422;2023-12-14T08:25:13;6.77;79.03
68943;DHT22;60852;52.190;4.422;2023-12-14T08:27:42;6.75;79.05
68943;DHT22;60852;52.190;4.422;2023-12-14T08:30:09;6.80;79.56
68943;DHT22;60852;52.190;4.422;2023-12-14T08:32:36;6.89;79.59
68943;DHT22;60852;52.190;4.422;2023-12-14T08:35:01;6.96;79.64
68943;DHT22;60852;52.190;4.422;2023-12-14T08:37:27;7.02;79.48
68943;DHT22;60852;52.190;4.422;2023-12-14T08:39:52;7.12;79.32
68943;DHT22;60852;52.190;4.422;2023-12-14T08:42:18;7.18;79.25
68943;DHT22;60852;52.190;4.422;2023-12-14T08:44:43;7.23;79.31
68943;DHT22;60852;52.190;4.422;2023-12-14T08:47:09;7.32;79.53
68943;DHT22;60852;52.190;4.422;2023-12-14T08:49:35;7.37;79.17
68943;DHT22;60852;52.190;4.422;2023-12-14T08:52:01;7.42;79.38
68943;DHT22;60852;52.190;4.422;2023-12-14T08:54:27;7.49;79.01
68943;DHT22;60852;52.190;4.422;2023-12-14T08:56:52;7.49;79.07
68943;DHT22;60852;52.190;4.422;2023-12-14T08:59:17;7.52;79.06
68943;DHT22;60852;52.190;4.422;2023-12-14T09:01:45;7.50;78.93
68943;DHT22;60852;52.190;4.422;2023-12-14T09:04:11;7.50;78.99
68943;DHT22;60852;52.190;4.422;2023-12-14T09:06:36;7.52;78.83
68943;DHT22;60852;52.190;4.422;2023-12-14T09:09:02;7.50;78.86
68943;DHT22;60852;52.190;4.422;2023-12-14T09:11:28;7.42;78.46
68943;DHT22;60852;52.190;4.422;2023-12-14T09:13:53;7.40;78.68
68943;DHT22;60852;52.190;4.422;2023-12-14T09:16:18;7.42;78.88
68943;DHT22;60852;52.190;4.422;2023-12-14T09:18:44;7.42;78.52
68943;DHT22;60852;52.190;4.422;2023-12-14T09:21:10;7.39;78.48
68943;DHT22;60852;52.190;4.422;2023-12-14T09:23:35;7.36;78.38
68943;DHT22;60852;52.190;4.422;2023-12-14T09:26:00;7.37;78.54
68943;DHT22;60852;52.190;4.422;2023-12-14T09:28:26;7.42;78.65
68943;DHT22;60852;52.190;4.422;2023-12-14T09:30:52;7.44;78.55
68943;DHT22;60852;52.190;4.422;2023-12-14T09:33:17;7.43;78.37
68943;DHT22;60852;52.190;4.422;2023-12-14T09:35:43;7.42;78.36
68943;DHT22;60852;52.190;4.422;2023-12-14T09:38:09;7.44;78.14
68943;DHT22;60852;52.190;4.422;2023-12-14T09:40:34;7.40;77.90
68943;DHT22;60852;52.190;4.422;2023-12-14T09:43:00;7.40;77.60
68943;DHT22;60852;52.190;4.422;2023-12-14T09:45:29;7.39;77.43
68943;DHT22;60852;52.190;4.422;2023-12-14T09:48:00;7.39;77.34
68943;DHT22;60852;52.190;4.422;2023-12-14T09:50:25;7.36;77.22
68943;DHT22;60852;52.190;4.422;2023-12-14T09:52:51;7.44;77.63
68943;DHT22;60852;52.190;4.422;2023-12-14T09:55:16;7.57;77.32
68943;DHT22;60852;52.190;4.422;2023-12-14T09:57:42;7.56;76.92
68943;DHT22;60852;52.190;4.422;2023-12-14T10:00:08;7.54;77.01
68943;DHT22;60852;52.190;4.422;2023-12-14T10:02:40;7.59;77.09
68943;DHT22;60852;52.190;4.422;2023-12-14T10:05:10;7.59;76.82
68943;DHT22;60852;52.190;4.422;2023-12-14T10:07:43;7.62;76.87
68943;DHT22;60852;52.190;4.422;2023-12-14T10:10:10;7.62;76.83
68943;DHT22;60852;52.190;4.422;2023-12-14T10:12:53;7.52;76.77
68943;DHT22;60852;52.190;4.422;2023-12-14T10:15:19;7.53;76.96
68943;DHT22;60852;52.190;4.422;2023-12-14T10:17:44;7.57;77.29
68943;DHT22;60852;52.190;4.422;2023-12-14T10:20:22;7.62;77.07
68943;DHT22;60852;52.190;4.422;2023-12-14T10:22:48;7.64;76.86
68943;DHT22;60852;52.190;4.422;2023-12-14T10:25:14;7.60;76.65
68943;DHT22;60852;52.190;4.422;2023-12-14T10:27:40;7.63;76.95
68943;DHT22;60852;52.190;4.422;2023-12-14T10:30:08;7.70;76.72
68943;DHT22;60852;52.190;4.422;2023-12-14T10:32:37;7.70;76.44
68943;DHT22;60852;52.190;4.422;2023-12-14T10:35:03;7.75;76.67
68943;DHT22;60852;52.190;4.422;2023-12-14T10:37:29;7.77;76.17
68943;DHT22;60852;52.190;4.422;2023-12-14T10:39:55;7.69;75.99
68943;DHT22;60852;52.190;4.422;2023-12-14T10:42:26;7.64;76.28
68943;DHT22;60852;52.190;4.422;2023-12-14T10:44:53;7.60;76.42
68943;DHT22;60852;52.190;4.422;2023-12-14T10:47:19;7.54;76.55
68943;DHT22;60852;52.190;4.422;2023-12-14T10:49:50;7.49;76.78
68943;DHT22;60852;52.190;4.422;2023-12-14T10:52:18;7.54;77.03
68943;DHT22;60852;52.190;4.422;2023-12-14T10:54:46;7.71;77.11
68943;DHT22;60852;52.190;4.422;2023-12-14T10:57:14;7.87;77.14
68943;DHT22;60852;52.190;4.422;2023-12-14T10:59:42;7.94;76.40
68943;DHT22;60852;52.190;4.422;2023-12-14T11:02:09;7.90;76.11
68943;DHT22;60852;52.190;4.422;2023-12-14T11:04:57;8.04;76.09
68943;DHT22;60852;52.190;4.422;2023-12-14T11:10:40;8.32;75.56
68943;DHT22;60852;52.190;4.422;2023-12-14T11:13:08;8.31;74.78
68943;DHT22;60852;52.190;4.422;2023-12-14T11:15:40;8.31;75.03
68943;DHT22;60852;52.190;4.422;2023-12-14T11:23:10;8.41;74.71
68943;DHT22;60852;52.190;4.422;2023-12-14T11:25:36;8.29;74.85
68943;DHT22;60852;52.190;4.422;2023-12-14T11:28:06;8.26;75.38
68943;DHT22;60852;52.190;4.422;2023-12-14T11:30:33;8.34;75.61
68943;DHT22;60852;52.190;4.422;2023-12-14T11:33:00;8.32;75.47
68943;DHT22;60852;52.190;4.422;2023-12-14T11:35:25;8.36;75.74
68943;DHT22;60852;52.190;4.422;2023-12-14T11:37:51;8.24;75.56
68943;DHT22;60852;52.190;4.422;2023-12-14T11:40:16;8.11;75.81
68943;DHT22;60852;52.190;4.422;2023-12-14T11:43:01;8.15;75.91
68943;DHT22;60852;52.190;4.422;2023-12-14T11:45:27;8.15;76.00
68943;DHT22;60852;52.190;4.422;2023-12-14T11:47:53;8.28;75.94
68943;DHT22;60852;52.190;4.422;2023-12-14T11:50:19;8.32;75.80
68943;DHT22;60852;52.190;4.422;2023-12-14T11:52:44;8.36;75.79
68943;DHT22;60852;52.190;4.422;2023-12-14T11:55:14;8.35;75.51
68943;DHT22;60852;52.190;4.422;2023-12-14T11:57:46;8.31;75.12
68943;DHT22;60852;52.190;4.422;2023-12-14T12:00:12;8.25;75.09
68943;DHT22;60852;52.190;4.422;2023-12-14T12:02:38;8.28;75.55
68943;DHT22;60852;52.190;4.422;2023-12-14T12:05:06;8.28;75.26
68943;DHT22;60852;52.190;4.422;2023-12-14T12:07:32;8.31;75.58
68943;DHT22;60852;52.190;4.422;2023-12-14T12:09:59;8.38;75.62
68943;DHT22;60852;52.190;4.422;2023-12-14T12:12:25;8.35;75.56
68943;DHT22;60852;52.190;4.422;2023-12-14T12:14:50;8.35;76.07
68943;DHT22;60852;52.190;4.422;2023-12-14T12:17:18;8.38;76.08
68943;DHT22;60852;52.190;4.422;2023-12-14T12:19:47;8.35;76.09
68943;DHT22;60852;52.190;4.422;2023-12-14T12:22:12;8.35;76.67
68943;DHT22;60852;52.190;4.422;2023-12-14T12:24:37;8.41;77.06
68943;DHT22;60852;52.190;4.422;2023-12-14T12:27:03;8.56;77.19
68943;DHT22;60852;52.190;4.422;2023-12-14T12:29:30;8.57;76.99
68943;DHT22;60852;52.190;4.422;2023-12-14T12:31:55;8.53;77.26
68943;DHT22;60852;52.190;4.422;2023-12-14T12:34:21;8.48;77.58
68943;DHT22;60852;52.190;4.422;2023-12-14T12:36:46;8.32;77.76
68943;DHT22;60852;52.190;4.422;2023-12-14T12:39:12;8.28;78.38
68943;DHT22;60852;52.190;4.422;2023-12-14T12:41:37;8.41;78.46
68943;DHT22;60852;52.190;4.422;2023-12-14T12:44:07;8.48;78.28
68943;DHT22;60852;52.190;4.422;2023-12-14T12:46:37;8.39;77.88
68943;DHT22;60852;52.190;4.422;2023-12-14T12:49:04;8.32;77.96
68943;DHT22;60852;52.190;4.422;2023-12-14T12:51:30;8.18;78.30
68943;DHT22;60852;52.190;4.422;2023-12-14T12:53:57;8.25;78.45
68943;DHT22;60852;52.190;4.422;2023-12-14T12:56:24;8.32;78.52
68943;DHT22;60852;52.190;4.422;2023-12-14T12:58:49;8.36;78.48
68943;DHT22;60852;52.190;4.422;2023-12-14T13:01:17;8.42;78.41
68943;DHT22;60852;52.190;4.422;2023-12-14T13:03:43;8.38;78.59
68943;DHT22;60852;52.190;4.422;2023-12-14T13:06:08;8.28;79.01
68943;DHT22;60852;52.190;4.422;2023-12-14T13:08:34;8.25;79.54
68943;DHT22;60852;52.190;4.422;2023-12-14T13:10:59;8.25;79.94
68943;DHT22;60852;52.190;4.422;2023-12-14T13:13:25;8.26;79.86
68943;DHT22;60852;52.190;4.422;2023-12-14T13:15:50;8.21;79.92
68943;DHT22;60852;52.190;4.422;2023-12-14T13:18:16;8.18;80.17
68943;DHT22;60852;52.190;4.422;2023-12-14T13:20:42;8.22;80.31
68943;DHT22;60852;52.190;4.422;2023-12-14T13:23:08;8.32;80.34
68943;DHT22;60852;52.190;4.422;2023-12-14T13:25:34;8.29;80.28
68943;DHT22;60852;52.190;4.422;2023-12-14T13:28:00;8.28;80.51
68943;DHT22;60852;52.190;4.422;2023-12-14T13:30:25;8.18;80.82
68943;DHT22;60852;52.190;4.422;2023-12-14T13:32:52;8.20;81.15
68943;DHT22;60852;52.190;4.422;2023-12-14T13:35:19;8.22;81.31
68943;DHT22;60852;52.190;4.422;2023-12-14T13:37:45;8.28;81.35
68943;DHT22;60852;52.190;4.422;2023-12-14T13:40:11;8.34;81.37
68943;DHT22;60852;52.190;4.422;2023-12-14T13:42:38;8.34;81.39
68943;DHT22;60852;52.190;4.422;2023-12-14T13:45:04;8.34;81.43
68943;DHT22;60852;52.190;4.422;2023-12-14T13:47:30;8.35;81.51
68943;DHT22;60852;52.190;4.422;2023-12-14T13:49:55;8.35;81.62
68943;DHT22;60852;52.190;4.422;2023-12-14T13:52:20;8.42;81.66
68943;DHT22;60852;52.190;4.422;2023-12-14T13:54:46;8.42;81.63
68943;DHT22;60852;52.190;4.422;2023-12-14T13:57:11;8.46;81.58
68943;DHT22;60852;52.190;4.422;2023-12-14T13:59:37;8.43;81.75
68943;DHT22;60852;52.190;4.422;2023-12-14T14:02:02;8.48;81.68
68943;DHT22;60852;52.190;4.422;2023-12-14T14:04:28;8.48;81.48
68943;DHT22;60852;52.190;4.422;2023-12-14T14:06:53;8.45;81.54
68943;DHT22;60852;52.190;4.422;2023-12-14T14:09:19;8.48;81.70
68943;DHT22;60852;52.190;4.422;2023-12-14T14:11:45;8.59;81.74
68943;DHT22;60852;52.190;4.422;2023-12-14T14:14:11;8.66;81.66
68943;DHT22;60852;52.190;4.422;2023-12-14T14:16:37;8.77;81.61
68943;DHT22;60852;52.190;4.422;2023-12-14T14:19:02;8.81;81.26
68943;DHT22;60852;52.190;4.422;2023-12-14T14:21:28;8.79;81.05
68943;DHT22;60852;52.190;4.422;2023-12-14T14:23:54;8.74;81.20
68943;DHT22;60852;52.190;4.422;2023-12-14T14:26:20;8.80;81.35
68943;DHT22;60852;52.190;4.422;2023-12-14T14:28:45;8.83;81.32
68943;DHT22;60852;52.190;4.422;2023-12-14T14:31:10;8.83;81.32
68943;DHT22;60852;52.190;4.422;2023-12-14T14:33:36;8.83;81.29
68943;DHT22;60852;52.190;4.422;2023-12-14T14:36:01;8.85;81.34
68943;DHT22;60852;52.190;4.422;2023-12-14T14:38:33;8.94;81.49
68943;DHT22;60852;52.190;4.422;2023-12-14T14:40:59;9.01;81.17
68943;DHT22;60852;52.190;4.422;2023-12-14T14:43:24;9.04;81.14
68943;DHT22;60852;52.190;4.422;2023-12-14T14:45:50;9.04;81.15
68943;DHT22;60852;52.190;4.422;2023-12-14T14:48:15;9.04;81.05
68943;DHT22;60852;52.190;4.422;2023-12-14T14:50:41;9.00;81.04
68943;DHT22;60852;52.190;4.422;2023-12-14T14:53:07;9.03;81.28
68943;DHT22;60852;52.190;4.422;2023-12-14T14:55:32;9.05;80.74
68943;DHT22;60852;52.190;4.422;2023-12-14T14:57:58;8.96;79.01
68943;DHT22;60852;52.190;4.422;2023-12-14T15:00:24;8.94;77.82
68943;DHT22;60852;52.190;4.422;2023-12-14T15:02:51;8.94;76.85
68943;DHT22;60852;52.190;4.422;2023-12-14T15:05:16;9.00;76.33
68943;DHT22;60852;52.190;4.422;2023-12-14T15:07:41;9.01;76.07
68943;DHT22;60852;52.190;4.422;2023-12-14T15:10:07;8.99;75.28
68943;DHT22;60852;52.190;4.422;2023-12-14T15:12:33;9.07;75.15
68943;DHT22;60852;52.190;4.422;2023-12-14T15:14:58;8.94;74.98
68943;DHT22;60852;52.190;4.422;2023-12-14T15:17:24;8.96;74.65
68943;DHT22;60852;52.190;4.422;2023-12-14T15:19:49;8.99;74.45
68943;DHT22;60852;52.190;4.422;2023-12-14T15:22:18;9.04;74.69
68943;DHT22;60852;52.190;4.422;2023-12-14T15:24:43;9.10;74.19
68943;DHT22;60852;52.190;4.422;2023-12-14T15:27:09;9.14;74.20
68943;DHT22;60852;52.190;4.422;2023-12-14T15:29:34;9.14;74.13
68943;DHT22;60852;52.190;4.422;2023-12-14T15:32:00;9.11;74.15
68943;DHT22;60852;52.190;4.422;2023-12-14T15:34:25;9.13;74.24
68943;DHT22;60852;52.190;4.422;2023-12-14T15:36:50;9.14;74.04
68943;DHT22;60852;52.190;4.422;2023-12-14T15:39:16;9.08;74.02
68943;DHT22;60852;52.190;4.422;2023-12-14T15:41:42;9.05;74.26
68943;DHT22;60852;52.190;4.422;2023-12-14T15:44:08;9.13;74.16
68943;DHT22;60852;52.190;4.422;2023-12-14T15:46:33;9.11;73.87